Thunder radar more information blitzortung!


Radar de pluja more information rain snow radar


Visita la nostra xarxa de llocs de meteo:

Template documentation
and downloads

And another site



No particular awareness of the weather is required.    There are no Weather-warnings

Pagina Historial Weather Underground text

Diari Resum Octubre 4, 2017 Unitats:  Imperial    Mètric   Tant
« Previous Dia
SegĂźent Dia »
Diari Setmana Mensual Anual Personalitzada
  Maxima: Minima: Media:
Temperatura: 76.3 °F 61.5 °F 68.2 °F
Punt de rosada: 64.8 °F 58.1 °F 61.7 °F
Humitat: 91 % 66 % 80 %
Wind Speed: 10.4 mph 0 mph 2.2 mph
RĂ fegues de vent: 11 mph - -
Vent:- - East
Pression baro: 30.3 in 30.2 in -
Precipitacions: 0 in    
Historical Graphs
 
 
Dades de taula per Octubre 4, 2017
Temps Temperatura Punt de rosada Pression baro Vent Wind Speed RĂ fegues de vent Humitat Rainfall Rate (Hourly)
00:00 66.4 °F 60.6 °F 30.2 in Calm     82 % 0 in
00:05 66.2 °F 60.4 °F 30.2 in SW 2.3 mph 2.3 mph 82 % 0 in
00:15 62.8 °F 58.8 °F 30.2 in Calm     87 % 0 in
00:25 62.8 °F 58.8 °F 30.2 in Calm   2 mph 87 % 0 in
00:35 62.6 °F 58.6 °F 30.2 in Calm   1 mph 87 % 0 in
00:45 62.4 °F 58.5 °F 30.2 in SSW 1 mph 2 mph 87 % 0 in
00:55 62.2 °F 58.3 °F 30.2 in SW 2 mph 2 mph 87 % 0 in
01:05 62.1 °F 58.1 °F 30.2 in SW 1 mph 2 mph 87 % 0 in
01:15 62.1 °F 58.5 °F 30.2 in SW 1 mph 2 mph 88 % 0 in
01:25 62.2 °F 58.6 °F 30.2 in Calm     88 % 0 in
01:35 62.2 °F 58.6 °F 30.2 in WSW 1 mph 2 mph 88 % 0 in
01:45 62.2 °F 58.6 °F 30.2 in Calm   1 mph 88 % 0 in
01:55 62.1 °F 58.5 °F 30.2 in Calm   1 mph 88 % 0 in
02:05 62.1 °F 58.8 °F 30.2 in Calm     89 % 0 in
02:15 62.1 °F 58.8 °F 30.2 in Calm     89 % 0 in
02:25 62.1 °F 58.8 °F 30.2 in Calm     89 % 0 in
02:35 62.1 °F 58.8 °F 30.2 in Calm     89 % 0 in
02:45 62.1 °F 58.8 °F 30.2 in Calm     89 % 0 in
02:55 61.9 °F 58.6 °F 30.2 in Calm     89 % 0 in
03:05 61.7 °F 58.5 °F 30.2 in Calm     89 % 0 in
03:15 61.5 °F 58.3 °F 30.2 in Calm     89 % 0 in
03:25 61.5 °F 58.6 °F 30.2 in Calm     90 % 0 in
03:35 61.7 °F 58.6 °F 30.2 in Calm     90 % 0 in
03:45 61.9 °F 58.8 °F 30.2 in Calm     90 % 0 in
03:55 63 °F 60.3 °F 30.2 in Calm     91 % 0 in
04:05 63.9 °F 61 °F 30.2 in Calm     90 % 0 in
04:15 64.4 °F 60.8 °F 30.2 in East 1 mph 3 mph 88 % 0 in
04:25 65.1 °F 61.2 °F 30.2 in Calm   3 mph 87 % 0 in
04:35 64.8 °F 60.1 °F 30.2 in SSE 1 mph 2 mph 85 % 0 in
04:45 65.1 °F 60.4 °F 30.2 in Calm   1 mph 85 % 0 in
04:55 67.3 °F 62.2 °F 30.2 in NW 1 mph 2 mph 84 % 0 in
05:05 68 °F 62.2 °F 30.2 in NNE 1 mph 2 mph 82 % 0 in
05:30 67.5 °F 60.6 °F 30.3 in ENE 1 mph 2 mph 79 % 0 in
05:40 67.8 °F 61.2 °F 30.3 in ENE 1 mph 2 mph 79 % 0 in
05:50 68 °F 61 °F 30.3 in East 1 mph 3 mph 78 % 0 in
06:00 68.2 °F 61.2 °F 30.3 in ENE 1 mph 2 mph 78 % 0 in
06:10 68.5 °F 61.3 °F 30.3 in NE 1 mph 2 mph 78 % 0 in
06:20 68.9 °F 61.9 °F 30.3 in East 3 mph 4 mph 78 % 0 in
06:30 69.6 °F 62.4 °F 30.3 in ENE 2 mph 3 mph 78 % 0 in
06:40 70.5 °F 63 °F 30.3 in ENE 2 mph 4 mph 77 % 0 in
06:50 71.2 °F 63.3 °F 30.3 in ENE 3 mph 4 mph 76 % 0 in
07:00 72.1 °F 64.2 °F 30.3 in ENE 2 mph 4 mph 76 % 0 in
07:10 73 °F 63.9 °F 30.3 in ESE 3 mph 6 mph 73 % 0 in
07:20 73.8 °F 64.6 °F 30.3 in ESE 1 mph 3 mph 73 % 0 in
07:30 73 °F 63.9 °F 30.3 in East 5 mph 7 mph 73 % 0 in
07:40 73.8 °F 64.2 °F 30.3 in ENE 3 mph 4 mph 72 % 0 in
07:50 73.9 °F 63.9 °F 30.3 in ENE 2 mph 5 mph 71 % 0 in
08:00 73.2 °F 63.7 °F 30.3 in ENE 3 mph 6 mph 72 % 0 in
08:10 73.2 °F 63.7 °F 30.3 in ENE 5 mph 5 mph 72 % 0 in
08:20 73.6 °F 64 °F 30.3 in ENE 3 mph 4 mph 72 % 0 in
08:30 74.7 °F 64.6 °F 30.3 in East 3 mph 7 mph 71 % 0 in
08:40 74.5 °F 64 °F 30.3 in East 7 mph 8 mph 70 % 0 in
08:50 74.7 °F 64.2 °F 30.3 in ESE 6 mph 9 mph 70 % 0 in
09:00 75.7 °F 64.8 °F 30.3 in ESE 3 mph 6 mph 69 % 0 in
09:10 74.8 °F 64 °F 30.3 in East 5 mph 8 mph 69 % 0 in
09:20 75.2 °F 63.9 °F 30.2 in ESE 6 mph 8 mph 68 % 0 in
09:30 76.3 °F 64.6 °F 30.2 in ESE 2 mph 7 mph 67 % 0 in
09:40 75.6 °F 63.3 °F 30.2 in ESE 3 mph 4 mph 66 % 0 in
09:50 74.5 °F 63.1 °F 30.2 in SE 7 mph 9 mph 68 % 0 in
10:00 73.6 °F 62.8 °F 30.2 in ESE 7 mph 11 mph 69 % 0 in
10:10 73.2 °F 63.1 °F 30.2 in ESE 7 mph 10 mph 71 % 0 in
10:12 67.3 °F 61 °F 30.2 in NE 2.9 mph 2.9 mph 80 % 0 in
10:13 67.3 °F 61 °F 30.2 in NE 3.5 mph 3.5 mph 80 % 0 in
10:18 67.3 °F 61 °F 30.3 in ENE 2.3 mph 2.3 mph 80 % 0 in
10:20 73.6 °F 63.7 °F 30.2 in East 5 mph 9 mph 71 % 0 in
10:23 67.5 °F 61.2 °F 30.3 in ENE 1.6 mph 2.2 mph 80 % 0 in
10:28 67.5 °F 61.2 °F 30.3 in ENE 1.6 mph 2.2 mph 80 % 0 in
10:30 73.4 °F 63 °F 30.2 in ESE 8 mph 8 mph 70 % 0 in
10:33 67.5 °F 61.2 °F 30.3 in ENE 1.6 mph 2.2 mph 80 % 0 in
10:38 67.5 °F 61.2 °F 30.3 in ENE 1.6 mph 2.2 mph 80 % 0 in
10:40 72.7 °F 63.1 °F 30.2 in East 5 mph 6 mph 72 % 0 in
10:43 67.5 °F 61.2 °F 30.3 in ENE 1.6 mph 2.2 mph 80 % 0 in
10:48 67.5 °F 61.2 °F 30.3 in ENE 1.6 mph 2.2 mph 80 % 0 in
10:50 72.7 °F 63.1 °F 30.2 in East 7 mph 9 mph 72 % 0 in
10:53 67.5 °F 61.2 °F 30.3 in ENE 1.6 mph 2.2 mph 80 % 0 in
10:58 67.5 °F 61.2 °F 30.3 in ENE 1.6 mph 2.2 mph 80 % 0 in
11:00 72.7 °F 63.1 °F 30.2 in ESE 3 mph 8 mph 72 % 0 in
11:03 67.5 °F 61.2 °F 30.3 in ENE 1.6 mph 2.2 mph 80 % 0 in
11:08 67.5 °F 61.2 °F 30.3 in ENE 1.6 mph 2.2 mph 80 % 0 in
11:10 72.3 °F 62.8 °F 30.2 in ESE 6 mph 10 mph 72 % 0 in
11:13 67.5 °F 61.2 °F 30.3 in ENE 1.6 mph 2.2 mph 80 % 0 in
11:18 67.5 °F 61.2 °F 30.3 in ENE 1.6 mph 2.2 mph 80 % 0 in
11:20 72.3 °F 62.8 °F 30.2 in ESE 3 mph 7 mph 72 % 0 in
11:23 67.5 °F 61.2 °F 30.3 in ENE 1.6 mph 2.2 mph 80 % 0 in
11:28 67.5 °F 61.2 °F 30.3 in ENE 1.6 mph 2.2 mph 80 % 0 in
11:30 71.8 °F 62.2 °F 30.2 in ESE 6 mph 9 mph 72 % 0 in
11:33 67.5 °F 61.2 °F 30.3 in ENE 1.6 mph 2.2 mph 80 % 0 in
11:38 67.5 °F 61.2 °F 30.3 in ENE 1.6 mph 2.2 mph 80 % 0 in
11:40 71.8 °F 62.2 °F 30.2 in ESE 7 mph 8 mph 72 % 0 in
11:43 67.5 °F 61.2 °F 30.3 in ENE 1.6 mph 2.2 mph 80 % 0 in
11:48 67.5 °F 61.2 °F 30.3 in ENE 1.6 mph 2.2 mph 80 % 0 in
11:53 67.5 °F 61.2 °F 30.3 in ENE 1.6 mph 2.2 mph 80 % 0 in
11:58 67.5 °F 61.2 °F 30.3 in ENE 1.6 mph 2.2 mph 80 % 0 in
12:03 67.5 °F 61.2 °F 30.3 in ENE 1.6 mph 2.2 mph 80 % 0 in
12:08 67.5 °F 61.2 °F 30.3 in ENE 1.6 mph 2.2 mph 80 % 0 in
12:13 67.5 °F 61.2 °F 30.3 in ENE 1.6 mph 2.2 mph 80 % 0 in
12:18 67.5 °F 61.2 °F 30.3 in ENE 1.6 mph 2.2 mph 80 % 0 in
12:23 67.5 °F 61.2 °F 30.3 in ENE 1.6 mph 2.2 mph 80 % 0 in
12:28 67.5 °F 61.2 °F 30.3 in ENE 1.6 mph 2.2 mph 80 % 0 in
12:33 67.5 °F 61.2 °F 30.3 in ENE 1.6 mph 2.2 mph 80 % 0 in
12:38 67.5 °F 61.2 °F 30.3 in ENE 1.6 mph 2.2 mph 80 % 0 in
12:43 67.5 °F 61.2 °F 30.3 in ENE 1.6 mph 2.2 mph 80 % 0 in
12:48 67.5 °F 61.2 °F 30.3 in ENE 1.6 mph 2.2 mph 80 % 0 in
12:53 67.5 °F 61.2 °F 30.3 in ENE 1.6 mph 2.2 mph 80 % 0 in
13:03 67.5 °F 61.2 °F 30.3 in ENE 1.6 mph 2.2 mph 80 % 0 in
13:08 67.5 °F 61.2 °F 30.3 in ENE 1.6 mph 2.2 mph 80 % 0 in
13:13 67.5 °F 61.2 °F 30.3 in ENE 1.6 mph 2.2 mph 80 % 0 in
13:18 67.5 °F 61.2 °F 30.3 in ENE 1.6 mph 2.2 mph 80 % 0 in
13:23 67.5 °F 61.2 °F 30.3 in ENE 1.6 mph 2.2 mph 80 % 0 in
13:28 67.5 °F 61.2 °F 30.3 in ENE 1.6 mph 2.2 mph 80 % 0 in
13:33 67.5 °F 61.2 °F 30.3 in ENE 1.6 mph 2.2 mph 80 % 0 in
13:38 67.5 °F 61.2 °F 30.3 in ENE 1.6 mph 2.2 mph 80 % 0 in
13:43 67.5 °F 61.2 °F 30.3 in ENE 1.6 mph 2.2 mph 80 % 0 in
13:48 67.5 °F 61.2 °F 30.3 in ENE 1.6 mph 2.2 mph 80 % 0 in
13:53 67.5 °F 61.2 °F 30.3 in ENE 1.6 mph 2.2 mph 80 % 0 in
13:58 67.5 °F 61.2 °F 30.3 in ENE 1.6 mph 2.2 mph 80 % 0 in
14:03 67.5 °F 61.2 °F 30.3 in ENE 1.6 mph 2.2 mph 80 % 0 in
14:08 67.5 °F 61.2 °F 30.3 in ENE 1.6 mph 2.2 mph 80 % 0 in
14:13 67.5 °F 61.2 °F 30.3 in ENE 1.6 mph 2.2 mph 80 % 0 in
14:18 67.5 °F 61.2 °F 30.3 in ENE 1.6 mph 2.2 mph 80 % 0 in
14:23 67.5 °F 61.2 °F 30.3 in ENE 1.6 mph 2.2 mph 80 % 0 in
14:28 67.5 °F 61.2 °F 30.3 in ENE 1.6 mph 2.2 mph 80 % 0 in
14:33 67.5 °F 61.2 °F 30.3 in ENE 1.6 mph 2.2 mph 80 % 0 in
14:38 67.5 °F 61.2 °F 30.3 in ENE 1.6 mph 2.2 mph 80 % 0 in
14:43 67.5 °F 61.2 °F 30.3 in ENE 1.6 mph 2.2 mph 80 % 0 in
14:48 67.5 °F 61.2 °F 30.3 in ENE 1.6 mph 2.2 mph 80 % 0 in
14:53 67.5 °F 61.2 °F 30.3 in ENE 1.6 mph 2.2 mph 80 % 0 in
15:03 67.5 °F 61.2 °F 30.3 in ENE 1.6 mph 2.2 mph 80 % 0 in
15:08 67.5 °F 61.2 °F 30.3 in ENE 1.6 mph 2.2 mph 80 % 0 in
15:13 67.5 °F 61.2 °F 30.3 in ENE 1.6 mph 2.2 mph 80 % 0 in
15:18 67.5 °F 61.2 °F 30.3 in ENE 1.6 mph 2.2 mph 80 % 0 in
15:23 67.5 °F 61.2 °F 30.3 in ENE 1.6 mph 2.2 mph 80 % 0 in
15:28 67.5 °F 61.2 °F 30.3 in ENE 1.6 mph 2.2 mph 80 % 0 in
15:33 67.5 °F 61.2 °F 30.3 in ENE 1.6 mph 2.2 mph 80 % 0 in
15:38 67.5 °F 61.2 °F 30.3 in ENE 1.6 mph 2.2 mph 80 % 0 in
15:43 67.5 °F 61.2 °F 30.3 in ENE 1.6 mph 2.2 mph 80 % 0 in
15:48 67.5 °F 61.2 °F 30.3 in ENE 1.6 mph 2.2 mph 80 % 0 in
15:53 67.5 °F 61.2 °F 30.3 in ENE 1.6 mph 2.2 mph 80 % 0 in
15:59 67.5 °F 61.2 °F 30.3 in ENE 1.6 mph 2.2 mph 80 % 0 in
16:04 67.5 °F 61.2 °F 30.3 in ENE 1.6 mph 2.2 mph 80 % 0 in
16:09 67.5 °F 61.2 °F 30.3 in ENE 1.6 mph 2.2 mph 80 % 0 in
16:14 67.5 °F 61.2 °F 30.3 in ENE 1.6 mph 2.2 mph 80 % 0 in
16:19 67.5 °F 61.2 °F 30.3 in ENE 1.6 mph 2.2 mph 80 % 0 in
16:24 67.5 °F 61.2 °F 30.3 in ENE 1.6 mph 2.2 mph 80 % 0 in
16:29 67.5 °F 61.2 °F 30.3 in ENE 1.6 mph 2.2 mph 80 % 0 in
16:34 67.5 °F 61.2 °F 30.3 in ENE 1.6 mph 2.2 mph 80 % 0 in
16:40 71.8 °F 62.2 °F 30.2 in ESE 6.4 mph 6.7 mph 72 % 0 in
16:45 72.1 °F 63 °F 30.2 in NNE 5.8 mph 5.8 mph 73 % 0 in
16:50 72.1 °F 63 °F 30.2 in ESE 9.2 mph 9.2 mph 73 % 0 in
16:55 72 °F 62.8 °F 30.2 in ESE 10.4 mph 10.4 mph 73 % 0 in
17:00 71.8 °F 62.8 °F 30.2 in ENE 9.2 mph 9.2 mph 73 % 0 in
17:05 72 °F 62.8 °F 30.2 in ENE 9.2 mph 9.2 mph 73 % 0 in
17:10 72.1 °F 63 °F 30.2 in ESE 6 mph 6 mph 73 % 0 in
17:15 72 °F 62.8 °F 30.2 in East 5.8 mph 6 mph 73 % 0 in
17:20 72 °F 62.8 °F 30.2 in East 8.1 mph 8.1 mph 73 % 0 in
17:25 71.8 °F 62.8 °F 30.2 in East 6.4 mph 6.4 mph 73 % 0 in
17:30 71.6 °F 63 °F 30.2 in ESE 8.1 mph 8.1 mph 74 % 0 in
17:35 71.6 °F 63 °F 30.2 in East 5.8 mph 5.8 mph 74 % 0 in
17:40 71.6 °F 63 °F 30.2 in East 5.8 mph 5.8 mph 74 % 0 in
17:45 71.6 °F 63 °F 30.2 in North 5.6 mph 5.6 mph 74 % 0 in
17:50 71.2 °F 63 °F 30.2 in ENE 5.8 mph 5.8 mph 75 % 0 in
17:55 71.2 °F 63 °F 30.2 in SE 4.6 mph 4.6 mph 75 % 0 in
18:00 71.2 °F 63 °F 30.2 in ENE 6.9 mph 6.9 mph 75 % 0 in
18:05 71.2 °F 63 °F 30.2 in East 4.6 mph 4.6 mph 75 % 0 in
18:10 71.2 °F 63 °F 30.2 in ENE 4.6 mph 4.6 mph 75 % 0 in
18:15 71.1 °F 63.1 °F 30.2 in ESE 4.7 mph 4.7 mph 76 % 0 in
18:20 71.1 °F 63.1 °F 30.2 in ENE 5.8 mph 5.8 mph 76 % 0 in
18:25 70.9 °F 63 °F 30.2 in East 8.1 mph 8.1 mph 76 % 0 in
18:30 70.9 °F 63 °F 30.2 in ENE 4.6 mph 4.6 mph 76 % 0 in
18:35 70.9 °F 63.3 °F 30.2 in East 4.3 mph 4.3 mph 77 % 0 in
18:40 70.7 °F 63.1 °F 30.2 in East 5.8 mph 5.8 mph 77 % 0 in
18:45 70.7 °F 63.1 °F 30.2 in ENE 5.8 mph 5.8 mph 77 % 0 in
18:50 70.7 °F 63.1 °F 30.2 in NNE 4.6 mph 4.6 mph 77 % 0 in
18:55 70.5 °F 63.3 °F 30.2 in ESE 5.8 mph 5.8 mph 78 % 0 in
19:00 70.5 °F 63.3 °F 30.2 in NE 5.8 mph 5.8 mph 78 % 0 in
19:05 70.3 °F 63.1 °F 30.2 in ESE 5.8 mph 5.8 mph 78 % 0 in
19:10 70.3 °F 63.1 °F 30.2 in SE 3.3 mph 3.3 mph 78 % 0 in
19:15 70.3 °F 63.1 °F 30.2 in East 3.5 mph 3.5 mph 78 % 0 in
19:20 67.1 °F 62.8 °F 30.2 in Calm     86 % 0 in
19:25 70.3 °F 63.5 °F 30.2 in ESE 3.6 mph 3.6 mph 79 % 0 in
19:30 70.3 °F 63.5 °F 30.2 in NNE 1.2 mph   79 % 0 in
19:35 70.2 °F 63.3 °F 30.2 in SE 2.3 mph 2.3 mph 79 % 0 in
19:40 70.3 °F 63.5 °F 30.2 in Calm     79 % 0 in
19:50 70.2 °F 63 °F 30.2 in WSW 3.6 mph 3.6 mph 78 % 0 in
19:55 70.2 °F 63 °F 30.2 in SW 1.2 mph   78 % 0 in
20:00 70.2 °F 62.6 °F 30.2 in SW 2.3 mph 2.3 mph 77 % 0 in
20:05 70 °F 62.4 °F 30.2 in SW 3.1 mph 3.1 mph 77 % 0 in
20:10 70 °F 62.4 °F 30.2 in SW 1.6 mph   77 % 0 in
20:15 69.8 °F 62.2 °F 30.2 in SW 1.6 mph 1.6 mph 77 % 0 in
20:20 69.6 °F 62.4 °F 30.2 in SW 1.2 mph   78 % 0 in
20:25 69.4 °F 62.2 °F 30.2 in Calm     78 % 0 in
20:30 69.4 °F 62.2 °F 30.2 in SW 2.3 mph 2.3 mph 78 % 0 in
20:35 69.3 °F 62.1 °F 30.2 in Calm     78 % 0 in
20:40 69.1 °F 62.2 °F 30.2 in Calm     79 % 0 in
20:45 68.9 °F 62.1 °F 30.2 in Calm     79 % 0 in
20:50 68.7 °F 61.9 °F 30.2 in Calm     79 % 0 in
20:55 68.7 °F 61.9 °F 30.2 in Calm     79 % 0 in
21:00 68.5 °F 61.9 °F 30.2 in Calm     79 % 0 in
21:05 68.4 °F 61.9 °F 30.2 in Calm     80 % 0 in
21:08 68.4 °F 61.9 °F 30.2 in Calm     80 % 0 in
21:10 66.7 °F 62.8 °F 30.2 in Calm     87 % 0 in
21:13 68.4 °F 61.9 °F 30.2 in Calm     80 % 0 in
21:18 68.4 °F 61.9 °F 30.2 in Calm     80 % 0 in
21:20 66.6 °F 62.6 °F 30.2 in Calm     87 % 0 in
21:23 68.4 °F 62.2 °F 30.2 in Calm     81 % 0 in
21:28 68.7 °F 62.8 °F 30.2 in ESE 1.2 mph   81 % 0 in
21:30 66.4 °F 62.4 °F 30.2 in Calm     87 % 0 in
21:33 68.5 °F 62.4 °F 30.2 in Calm     81 % 0 in
21:38 68.5 °F 62.4 °F 30.2 in Calm     81 % 0 in
21:40 66.4 °F 62.4 °F 30.2 in SW 2 mph 2 mph 87 % 0 in
21:43 68.5 °F 62.4 °F 30.2 in East 2.6 mph 2.6 mph 81 % 0 in
21:48 68.4 °F 62.2 °F 30.2 in ENE 1.2 mph 1.4 mph 81 % 0 in
21:50 66.2 °F 62.2 °F 30.2 in Calm   2 mph 87 % 0 in
21:53 68.2 °F 62.1 °F 30.2 in East 2.3 mph 2.3 mph 81 % 0 in
21:54 68.2 °F 62.1 °F 30.2 in East 2.3 mph 2.3 mph 81 % 0 in
21:59 68.2 °F 62.1 °F 30.2 in East 2.3 mph 2.3 mph 81 % 0 in
22:00 65.8 °F 62.2 °F 30.2 in WSW 1 mph 3 mph 88 % 0 in
22:04 68 °F 62.2 °F 30.2 in South 1.2 mph   82 % 0 in
22:10 65.5 °F 61.9 °F 30.2 in WSW 1 mph 3 mph 88 % 0 in
22:14 67.5 °F 61.9 °F 30.2 in Calm     82 % 0 in
22:19 67.5 °F 61.9 °F 30.2 in SE 1.2 mph   82 % 0 in
22:20 64.9 °F 61.3 °F 30.2 in WSW 1 mph 2 mph 88 % 0 in
22:24 67.6 °F 62.2 °F 30.2 in Calm     83 % 0 in
22:29 67.5 °F 62.1 °F 30.2 in Calm     83 % 0 in
22:30 64.8 °F 61.2 °F 30.2 in WSW 1 mph 2 mph 88 % 0 in
22:34 67.1 °F 61.9 °F 30.3 in Calm     83 % 0 in
22:39 67.1 °F 61.9 °F 30.3 in Calm     83 % 0 in
22:40 64.6 °F 61 °F 30.2 in WSW 2 mph 3 mph 88 % 0 in
22:49 66.9 °F 61.9 °F 30.3 in Calm     84 % 0 in
22:50 64.4 °F 60.8 °F 30.2 in WSW 1 mph 3 mph 88 % 0 in
22:54 66.9 °F 61.9 °F 30.3 in Calm     84 % 0 in
22:59 66.7 °F 61.7 °F 30.3 in Calm     84 % 0 in
23:04 66.9 °F 61.9 °F 30.3 in East 1.2 mph   84 % 0 in
23:09 66.9 °F 62.2 °F 30.3 in Calm     85 % 0 in
23:10 63.7 °F 60.1 °F 30.2 in WSW 1 mph 3 mph 88 % 0 in
23:14 66.9 °F 62.2 °F 30.3 in Calm     85 % 0 in
23:19 66.9 °F 62.2 °F 30.2 in East 1.2 mph   85 % 0 in
23:20 63.7 °F 59.7 °F 30.2 in WSW 1 mph 2 mph 87 % 0 in
23:24 66.7 °F 62.1 °F 30.2 in ENE 1.6 mph   85 % 0 in
23:29 66.7 °F 62.1 °F 30.2 in Calm     85 % 0 in
23:30 63.5 °F 59.5 °F 30.2 in Calm   1 mph 87 % 0 in
23:34 66.7 °F 62.4 °F 30.2 in Calm     86 % 0 in
23:39 66.9 °F 62.6 °F 30.2 in Calm     86 % 0 in
23:40 63.5 °F 59.5 °F 30.2 in Calm   2 mph 87 % 0 in
23:44 66.9 °F 62.6 °F 30.2 in Calm     86 % 0 in
23:49 66.9 °F 62.6 °F 30.2 in Calm     86 % 0 in
23:50 63.1 °F 59.2 °F 30.2 in Calm     87 % 0 in
23:54 66.9 °F 62.6 °F 30.2 in Calm     86 % 0 in
23:59 66.9 °F 62.6 °F 30.3 in Calm     86 % 0 in
Meteo Sesrovires
Elogis d' Weather Underground - 3.75 mb

Guio original per  Jim McMurry - jmcmurry@mwt.net Adaptat per a la plantilla per  Wim van der Kuil - Leuven-Template.eu

Trobareu la nostra informacio del temps tambe a:

Weather Underground

AWEKAS